sensor_id;sensor_type;location;lat;lon;timestamp;temperature;humidity
4245;DHT22;2136;48.502;9.194;2022-10-30T00:02:03;15.60;99.90
4245;DHT22;2136;48.502;9.194;2022-10-30T00:04:30;15.50;99.90
4245;DHT22;2136;48.502;9.194;2022-10-30T00:06:56;15.50;99.90
4245;DHT22;2136;48.502;9.194;2022-10-30T00:09:23;15.50;99.90
4245;DHT22;2136;48.502;9.194;2022-10-30T00:11:50;15.60;99.90
4245;DHT22;2136;48.502;9.194;2022-10-30T00:14:18;15.50;99.90
4245;DHT22;2136;48.502;9.194;2022-10-30T00:16:45;15.50;99.90
4245;DHT22;2136;48.502;9.194;2022-10-30T00:19:11;15.50;99.90
4245;DHT22;2136;48.502;9.194;2022-10-30T00:21:38;15.50;99.90
4245;DHT22;2136;48.502;9.194;2022-10-30T00:24:06;15.40;99.90
4245;DHT22;2136;48.502;9.194;2022-10-30T00:26:33;15.40;99.90
4245;DHT22;2136;48.502;9.194;2022-10-30T00:29:00;15.40;99.90
4245;DHT22;2136;48.502;9.194;2022-10-30T00:31:28;15.40;99.90
4245;DHT22;2136;48.502;9.194;2022-10-30T00:33:55;15.40;99.90
4245;DHT22;2136;48.502;9.194;2022-10-30T00:36:22;15.40;99.90
4245;DHT22;2136;48.502;9.194;2022-10-30T00:38:49;15.40;99.90
4245;DHT22;2136;48.502;9.194;2022-10-30T00:41:17;15.40;99.90
4245;DHT22;2136;48.502;9.194;2022-10-30T00:43:44;15.40;99.90
4245;DHT22;2136;48.502;9.194;2022-10-30T00:46:17;15.40;99.90
4245;DHT22;2136;48.502;9.194;2022-10-30T00:48:48;15.50;99.90
4245;DHT22;2136;48.502;9.194;2022-10-30T00:51:17;15.50;99.90
4245;DHT22;2136;48.502;9.194;2022-10-30T00:53:45;15.40;99.90
4245;DHT22;2136;48.502;9.194;2022-10-30T00:56:15;15.50;99.90
4245;DHT22;2136;48.502;9.194;2022-10-30T00:58:47;15.50;99.90
4245;DHT22;2136;48.502;9.194;2022-10-30T01:01:17;15.50;99.90
4245;DHT22;2136;48.502;9.194;2022-10-30T01:03:46;15.50;99.90
4245;DHT22;2136;48.502;9.194;2022-10-30T01:06:16;15.50;99.90
4245;DHT22;2136;48.502;9.194;2022-10-30T01:08:43;15.50;99.90
4245;DHT22;2136;48.502;9.194;2022-10-30T01:11:11;15.60;99.90
4245;DHT22;2136;48.502;9.194;2022-10-30T01:13:39;15.60;99.90
4245;DHT22;2136;48.502;9.194;2022-10-30T01:16:26;15.60;99.90
4245;DHT22;2136;48.502;9.194;2022-10-30T01:19:01;15.60;99.90
4245;DHT22;2136;48.502;9.194;2022-10-30T01:21:39;15.60;99.90
4245;DHT22;2136;48.502;9.194;2022-10-30T01:27:13;15.50;99.90
4245;DHT22;2136;48.502;9.194;2022-10-30T01:29:55;15.50;99.90
4245;DHT22;2136;48.502;9.194;2022-10-30T01:32:38;15.40;99.90
4245;DHT22;2136;48.502;9.194;2022-10-30T01:35:13;15.30;99.40
4245;DHT22;2136;48.502;9.194;2022-10-30T01:37:45;15.30;98.00
4245;DHT22;2136;48.502;9.194;2022-10-30T01:40:16;15.20;97.10
4245;DHT22;2136;48.502;9.194;2022-10-30T01:42:46;15.10;96.90
4245;DHT22;2136;48.502;9.194;2022-10-30T01:45:17;15.10;97.00
4245;DHT22;2136;48.502;9.194;2022-10-30T01:47:56;15.00;97.30
4245;DHT22;2136;48.502;9.194;2022-10-30T01:50:34;14.90;97.70
4245;DHT22;2136;48.502;9.194;2022-10-30T01:53:07;14.90;98.50
4245;DHT22;2136;48.502;9.194;2022-10-30T01:55:48;14.80;98.90
4245;DHT22;2136;48.502;9.194;2022-10-30T01:58:20;14.80;99.70
4245;DHT22;2136;48.502;9.194;2022-10-30T02:00:51;14.70;99.90
4245;DHT22;2136;48.502;9.194;2022-10-30T02:03:19;14.70;99.90
4245;DHT22;2136;48.502;9.194;2022-10-30T02:05:49;14.70;99.90
4245;DHT22;2136;48.502;9.194;2022-10-30T02:08:16;14.70;99.90
4245;DHT22;2136;48.502;9.194;2022-10-30T02:10:45;14.70;99.90
4245;DHT22;2136;48.502;9.194;2022-10-30T02:13:13;14.70;99.90
4245;DHT22;2136;48.502;9.194;2022-10-30T02:15:40;14.70;99.90
4245;DHT22;2136;48.502;9.194;2022-10-30T02:18:08;14.60;99.90
4245;DHT22;2136;48.502;9.194;2022-10-30T02:20:37;14.70;99.90
4245;DHT22;2136;48.502;9.194;2022-10-30T02:23:04;14.70;99.90
4245;DHT22;2136;48.502;9.194;2022-10-30T02:25:33;14.60;99.90
4245;DHT22;2136;48.502;9.194;2022-10-30T02:28:00;14.70;99.90
4245;DHT22;2136;48.502;9.194;2022-10-30T02:30:27;14.70;99.90
4245;DHT22;2136;48.502;9.194;2022-10-30T02:32:53;14.70;99.90
4245;DHT22;2136;48.502;9.194;2022-10-30T02:35:20;14.60;99.90
4245;DHT22;2136;48.502;9.194;2022-10-30T02:37:49;14.70;99.90
4245;DHT22;2136;48.502;9.194;2022-10-30T02:40:16;14.70;99.90
4245;DHT22;2136;48.502;9.194;2022-10-30T02:42:43;14.70;99.90
4245;DHT22;2136;48.502;9.194;2022-10-30T02:45:10;14.70;99.90
4245;DHT22;2136;48.502;9.194;2022-10-30T02:47:37;14.70;99.90
4245;DHT22;2136;48.502;9.194;2022-10-30T02:50:04;14.70;99.90
4245;DHT22;2136;48.502;9.194;2022-10-30T02:52:31;14.70;99.90
4245;DHT22;2136;48.502;9.194;2022-10-30T02:54:59;14.80;99.90
4245;DHT22;2136;48.502;9.194;2022-10-30T02:57:26;14.80;99.90
4245;DHT22;2136;48.502;9.194;2022-10-30T02:59:53;14.80;99.90
4245;DHT22;2136;48.502;9.194;2022-10-30T03:02:19;15.00;99.90
4245;DHT22;2136;48.502;9.194;2022-10-30T03:04:46;14.90;99.90
4245;DHT22;2136;48.502;9.194;2022-10-30T03:07:13;15.00;99.90
4245;DHT22;2136;48.502;9.194;2022-10-30T03:09:40;15.10;99.90
4245;DHT22;2136;48.502;9.194;2022-10-30T03:12:08;15.00;99.90
4245;DHT22;2136;48.502;9.194;2022-10-30T03:14:35;15.00;99.90
4245;DHT22;2136;48.502;9.194;2022-10-30T03:17:02;15.00;99.90
4245;DHT22;2136;48.502;9.194;2022-10-30T03:19:28;15.00;99.90
4245;DHT22;2136;48.502;9.194;2022-10-30T03:21:55;15.00;99.90
4245;DHT22;2136;48.502;9.194;2022-10-30T03:24:22;14.90;99.90
4245;DHT22;2136;48.502;9.194;2022-10-30T03:26:49;14.90;99.90
4245;DHT22;2136;48.502;9.194;2022-10-30T03:29:17;14.90;99.90
4245;DHT22;2136;48.502;9.194;2022-10-30T03:31:44;14.80;99.90
4245;DHT22;2136;48.502;9.194;2022-10-30T03:34:11;14.80;99.90
4245;DHT22;2136;48.502;9.194;2022-10-30T03:36:37;14.80;99.90
4245;DHT22;2136;48.502;9.194;2022-10-30T03:39:04;14.80;99.90
4245;DHT22;2136;48.502;9.194;2022-10-30T03:41:31;14.80;99.90
4245;DHT22;2136;48.502;9.194;2022-10-30T03:43:58;14.70;99.90
4245;DHT22;2136;48.502;9.194;2022-10-30T03:46:26;14.70;99.90
4245;DHT22;2136;48.502;9.194;2022-10-30T03:48:55;14.70;99.90
4245;DHT22;2136;48.502;9.194;2022-10-30T03:51:21;14.70;99.90
4245;DHT22;2136;48.502;9.194;2022-10-30T03:53:48;14.60;99.90
4245;DHT22;2136;48.502;9.194;2022-10-30T03:56:15;14.60;99.40
4245;DHT22;2136;48.502;9.194;2022-10-30T03:58:44;14.50;98.90
4245;DHT22;2136;48.502;9.194;2022-10-30T04:01:11;14.50;98.80
4245;DHT22;2136;48.502;9.194;2022-10-30T04:03:39;14.40;98.70
4245;DHT22;2136;48.502;9.194;2022-10-30T04:06:05;14.30;98.90
4245;DHT22;2136;48.502;9.194;2022-10-30T04:08:33;14.30;99.70
4245;DHT22;2136;48.502;9.194;2022-10-30T04:10:59;14.20;99.90
4245;DHT22;2136;48.502;9.194;2022-10-30T04:13:26;14.20;99.90
4245;DHT22;2136;48.502;9.194;2022-10-30T04:15:53;14.20;99.90
4245;DHT22;2136;48.502;9.194;2022-10-30T04:18:20;14.10;99.90
4245;DHT22;2136;48.502;9.194;2022-10-30T04:20:48;14.10;99.90
4245;DHT22;2136;48.502;9.194;2022-10-30T04:23:17;14.10;99.90
4245;DHT22;2136;48.502;9.194;2022-10-30T04:25:44;14.00;99.90
4245;DHT22;2136;48.502;9.194;2022-10-30T04:28:11;14.10;99.90
4245;DHT22;2136;48.502;9.194;2022-10-30T04:30:38;14.10;99.90
4245;DHT22;2136;48.502;9.194;2022-10-30T04:33:06;14.00;99.90
4245;DHT22;2136;48.502;9.194;2022-10-30T04:35:35;14.00;99.90
4245;DHT22;2136;48.502;9.194;2022-10-30T04:38:05;14.00;99.90
4245;DHT22;2136;48.502;9.194;2022-10-30T04:40:34;14.00;99.90
4245;DHT22;2136;48.502;9.194;2022-10-30T04:43:01;14.00;99.90
4245;DHT22;2136;48.502;9.194;2022-10-30T04:45:28;14.00;99.90
4245;DHT22;2136;48.502;9.194;2022-10-30T04:47:59;14.10;99.90
4245;DHT22;2136;48.502;9.194;2022-10-30T04:50:27;14.00;99.90
4245;DHT22;2136;48.502;9.194;2022-10-30T04:52:58;14.00;99.90
4245;DHT22;2136;48.502;9.194;2022-10-30T04:55:26;13.90;99.90
4245;DHT22;2136;48.502;9.194;2022-10-30T04:57:55;14.00;99.90
4245;DHT22;2136;48.502;9.194;2022-10-30T05:00:21;14.00;99.90
4245;DHT22;2136;48.502;9.194;2022-10-30T05:02:48;14.00;99.90
4245;DHT22;2136;48.502;9.194;2022-10-30T05:05:15;14.00;99.90
4245;DHT22;2136;48.502;9.194;2022-10-30T05:07:42;13.90;99.90
4245;DHT22;2136;48.502;9.194;2022-10-30T05:10:10;14.00;99.90
4245;DHT22;2136;48.502;9.194;2022-10-30T05:12:40;13.90;99.90
4245;DHT22;2136;48.502;9.194;2022-10-30T05:15:08;13.90;99.90
4245;DHT22;2136;48.502;9.194;2022-10-30T05:17:35;13.90;99.90
4245;DHT22;2136;48.502;9.194;2022-10-30T05:20:02;13.90;99.90
4245;DHT22;2136;48.502;9.194;2022-10-30T05:22:29;13.80;99.90
4245;DHT22;2136;48.502;9.194;2022-10-30T05:24:56;13.80;99.90
4245;DHT22;2136;48.502;9.194;2022-10-30T05:27:22;13.80;99.90
4245;DHT22;2136;48.502;9.194;2022-10-30T05:29:51;13.80;99.90
4245;DHT22;2136;48.502;9.194;2022-10-30T05:32:17;13.80;99.90
4245;DHT22;2136;48.502;9.194;2022-10-30T05:34:44;13.70;99.90
4245;DHT22;2136;48.502;9.194;2022-10-30T05:37:11;13.70;99.90
4245;DHT22;2136;48.502;9.194;2022-10-30T05:39:38;13.70;99.90
4245;DHT22;2136;48.502;9.194;2022-10-30T05:42:04;13.70;99.90
4245;DHT22;2136;48.502;9.194;2022-10-30T05:44:31;13.70;99.90
4245;DHT22;2136;48.502;9.194;2022-10-30T05:46:59;13.70;99.90
4245;DHT22;2136;48.502;9.194;2022-10-30T05:49:26;13.60;99.90
4245;DHT22;2136;48.502;9.194;2022-10-30T05:51:53;13.60;99.90
4245;DHT22;2136;48.502;9.194;2022-10-30T05:54:20;13.60;99.90
4245;DHT22;2136;48.502;9.194;2022-10-30T05:56:46;13.60;99.90
4245;DHT22;2136;48.502;9.194;2022-10-30T05:59:13;13.50;99.90
4245;DHT22;2136;48.502;9.194;2022-10-30T06:02:05;13.50;99.90
4245;DHT22;2136;48.502;9.194;2022-10-30T06:04:32;13.50;99.90
4245;DHT22;2136;48.502;9.194;2022-10-30T06:06:58;13.50;99.90
4245;DHT22;2136;48.502;9.194;2022-10-30T06:09:25;13.40;99.90
4245;DHT22;2136;48.502;9.194;2022-10-30T06:11:52;13.40;99.90
4245;DHT22;2136;48.502;9.194;2022-10-30T06:14:19;13.40;99.90
4245;DHT22;2136;48.502;9.194;2022-10-30T06:16:46;13.40;99.90
4245;DHT22;2136;48.502;9.194;2022-10-30T06:19:14;13.40;99.90
4245;DHT22;2136;48.502;9.194;2022-10-30T06:21:41;13.40;99.90
4245;DHT22;2136;48.502;9.194;2022-10-30T06:24:08;13.40;99.90
4245;DHT22;2136;48.502;9.194;2022-10-30T06:26:35;13.40;99.90
4245;DHT22;2136;48.502;9.194;2022-10-30T06:29:02;13.40;99.90
4245;DHT22;2136;48.502;9.194;2022-10-30T06:31:28;13.40;99.90
4245;DHT22;2136;48.502;9.194;2022-10-30T06:33:55;13.50;99.90
4245;DHT22;2136;48.502;9.194;2022-10-30T06:36:23;13.50;99.90
4245;DHT22;2136;48.502;9.194;2022-10-30T06:38:50;13.60;99.90
4245;DHT22;2136;48.502;9.194;2022-10-30T06:41:17;13.70;99.90
4245;DHT22;2136;48.502;9.194;2022-10-30T06:43:43;13.60;99.90
4245;DHT22;2136;48.502;9.194;2022-10-30T06:46:10;13.60;99.90
4245;DHT22;2136;48.502;9.194;2022-10-30T06:48:37;13.70;99.90
4245;DHT22;2136;48.502;9.194;2022-10-30T06:51:04;13.80;99.90
4245;DHT22;2136;48.502;9.194;2022-10-30T06:53:32;13.80;99.90
4245;DHT22;2136;48.502;9.194;2022-10-30T06:56:00;14.00;99.90
4245;DHT22;2136;48.502;9.194;2022-10-30T06:58:28;14.00;99.90
4245;DHT22;2136;48.502;9.194;2022-10-30T07:00:57;14.20;99.90
4245;DHT22;2136;48.502;9.194;2022-10-30T07:03:24;14.30;99.90
4245;DHT22;2136;48.502;9.194;2022-10-30T07:05:51;14.40;99.90
4245;DHT22;2136;48.502;9.194;2022-10-30T07:08:18;14.50;99.90
4245;DHT22;2136;48.502;9.194;2022-10-30T07:10:46;14.50;99.90
4245;DHT22;2136;48.502;9.194;2022-10-30T07:13:13;14.70;99.90
4245;DHT22;2136;48.502;9.194;2022-10-30T07:15:39;14.70;99.90
4245;DHT22;2136;48.502;9.194;2022-10-30T07:18:08;14.80;99.90
4245;DHT22;2136;48.502;9.194;2022-10-30T07:20:35;14.90;99.90
4245;DHT22;2136;48.502;9.194;2022-10-30T07:23:02;15.00;99.90
4245;DHT22;2136;48.502;9.194;2022-10-30T07:25:29;15.20;99.90
4245;DHT22;2136;48.502;9.194;2022-10-30T07:27:57;15.20;99.90
4245;DHT22;2136;48.502;9.194;2022-10-30T07:30:26;15.30;99.90
4245;DHT22;2136;48.502;9.194;2022-10-30T07:32:57;15.50;99.80
4245;DHT22;2136;48.502;9.194;2022-10-30T07:35:24;15.50;98.90
4245;DHT22;2136;48.502;9.194;2022-10-30T07:37:50;15.60;98.50
4245;DHT22;2136;48.502;9.194;2022-10-30T07:40:18;15.60;97.60
4245;DHT22;2136;48.502;9.194;2022-10-30T07:42:45;15.70;96.90
4245;DHT22;2136;48.502;9.194;2022-10-30T07:45:13;15.80;96.60
4245;DHT22;2136;48.502;9.194;2022-10-30T07:47:40;15.90;96.00
4245;DHT22;2136;48.502;9.194;2022-10-30T07:50:08;16.00;94.80
4245;DHT22;2136;48.502;9.194;2022-10-30T07:52:35;16.10;92.80
4245;DHT22;2136;48.502;9.194;2022-10-30T07:55:02;16.00;91.40
4245;DHT22;2136;48.502;9.194;2022-10-30T07:57:30;16.20;90.50
4245;DHT22;2136;48.502;9.194;2022-10-30T08:00:00;16.30;88.80
4245;DHT22;2136;48.502;9.194;2022-10-30T08:02:28;16.40;87.50
4245;DHT22;2136;48.502;9.194;2022-10-30T08:04:55;16.50;87.20
4245;DHT22;2136;48.502;9.194;2022-10-30T08:07:21;16.70;86.70
4245;DHT22;2136;48.502;9.194;2022-10-30T08:09:48;16.90;84.90
4245;DHT22;2136;48.502;9.194;2022-10-30T08:12:15;16.80;83.70
4245;DHT22;2136;48.502;9.194;2022-10-30T08:14:42;17.20;82.00
4245;DHT22;2136;48.502;9.194;2022-10-30T08:17:09;17.40;81.60
4245;DHT22;2136;48.502;9.194;2022-10-30T08:19:37;17.60;79.50
4245;DHT22;2136;48.502;9.194;2022-10-30T08:22:03;17.80;78.50
4245;DHT22;2136;48.502;9.194;2022-10-30T08:24:30;18.10;75.40
4245;DHT22;2136;48.502;9.194;2022-10-30T08:26:57;18.40;72.40
4245;DHT22;2136;48.502;9.194;2022-10-30T08:29:24;18.80;70.50
4245;DHT22;2136;48.502;9.194;2022-10-30T08:31:51;19.30;69.70
4245;DHT22;2136;48.502;9.194;2022-10-30T08:34:18;19.80;68.30
4245;DHT22;2136;48.502;9.194;2022-10-30T08:36:48;20.30;65.30
4245;DHT22;2136;48.502;9.194;2022-10-30T08:39:15;21.10;64.00
4245;DHT22;2136;48.502;9.194;2022-10-30T08:41:42;21.80;62.30
4245;DHT22;2136;48.502;9.194;2022-10-30T08:44:09;22.50;60.40
4245;DHT22;2136;48.502;9.194;2022-10-30T08:46:36;23.00;58.70
4245;DHT22;2136;48.502;9.194;2022-10-30T08:49:03;23.40;58.00
4245;DHT22;2136;48.502;9.194;2022-10-30T08:51:31;23.70;57.10
4245;DHT22;2136;48.502;9.194;2022-10-30T08:54:00;23.80;56.00
4245;DHT22;2136;48.502;9.194;2022-10-30T08:56:27;23.80;55.00
4245;DHT22;2136;48.502;9.194;2022-10-30T08:58:54;23.90;54.60
4245;DHT22;2136;48.502;9.194;2022-10-30T09:01:20;23.90;53.70
4245;DHT22;2136;48.502;9.194;2022-10-30T09:03:47;23.70;53.90
4245;DHT22;2136;48.502;9.194;2022-10-30T09:06:14;23.70;54.10
4245;DHT22;2136;48.502;9.194;2022-10-30T09:08:41;23.90;54.90
4245;DHT22;2136;48.502;9.194;2022-10-30T09:11:09;24.50;53.90
4245;DHT22;2136;48.502;9.194;2022-10-30T09:13:36;25.10;53.20
4245;DHT22;2136;48.502;9.194;2022-10-30T09:16:03;25.20;52.30
4245;DHT22;2136;48.502;9.194;2022-10-30T09:18:30;25.00;51.10
4245;DHT22;2136;48.502;9.194;2022-10-30T09:20:57;25.10;51.30
4245;DHT22;2136;48.502;9.194;2022-10-30T09:23:24;25.20;51.10
4245;DHT22;2136;48.502;9.194;2022-10-30T09:25:51;24.90;50.80
4245;DHT22;2136;48.502;9.194;2022-10-30T09:28:19;24.60;50.90
4245;DHT22;2136;48.502;9.194;2022-10-30T09:30:46;24.40;51.00
4245;DHT22;2136;48.502;9.194;2022-10-30T09:33:17;24.20;51.00
4245;DHT22;2136;48.502;9.194;2022-10-30T09:35:44;24.40;51.40
4245;DHT22;2136;48.502;9.194;2022-10-30T09:38:10;24.90;50.70
4245;DHT22;2136;48.502;9.194;2022-10-30T09:40:47;25.70;49.90
4245;DHT22;2136;48.502;9.194;2022-10-30T09:43:26;26.40;49.80
4245;DHT22;2136;48.502;9.194;2022-10-30T09:46:17;26.90;48.20
4245;DHT22;2136;48.502;9.194;2022-10-30T09:52:15;26.70;46.80
4245;DHT22;2136;48.502;9.194;2022-10-30T09:55:00;26.40;46.50
4245;DHT22;2136;48.502;9.194;2022-10-30T09:57:33;26.50;46.50
4245;DHT22;2136;48.502;9.194;2022-10-30T10:00:06;26.60;46.40
4245;DHT22;2136;48.502;9.194;2022-10-30T10:02:36;26.70;45.60
4245;DHT22;2136;48.502;9.194;2022-10-30T10:05:10;26.60;45.00
4245;DHT22;2136;48.502;9.194;2022-10-30T10:07:41;26.60;45.40
4245;DHT22;2136;48.502;9.194;2022-10-30T10:10:16;26.40;45.80
4245;DHT22;2136;48.502;9.194;2022-10-30T10:12:45;26.40;46.20
4245;DHT22;2136;48.502;9.194;2022-10-30T10:15:22;26.40;46.40
4245;DHT22;2136;48.502;9.194;2022-10-30T10:17:54;26.30;46.40
4245;DHT22;2136;48.502;9.194;2022-10-30T10:20:27;26.20;47.00
4245;DHT22;2136;48.502;9.194;2022-10-30T10:22:56;26.70;47.40
4245;DHT22;2136;48.502;9.194;2022-10-30T10:25:24;27.50;46.60
4245;DHT22;2136;48.502;9.194;2022-10-30T10:28:01;28.00;45.60
4245;DHT22;2136;48.502;9.194;2022-10-30T10:30:41;28.30;44.60
4245;DHT22;2136;48.502;9.194;2022-10-30T10:33:21;28.60;43.40
4245;DHT22;2136;48.502;9.194;2022-10-30T10:36:02;29.20;43.00
4245;DHT22;2136;48.502;9.194;2022-10-30T10:38:50;30.70;42.30
4245;DHT22;2136;48.502;9.194;2022-10-30T10:41:29;32.60;40.70
4245;DHT22;2136;48.502;9.194;2022-10-30T10:44:16;34.80;39.10
4245;DHT22;2136;48.502;9.194;2022-10-30T10:47:02;37.00;37.00
4245;DHT22;2136;48.502;9.194;2022-10-30T10:49:41;39.00;33.50
4245;DHT22;2136;48.502;9.194;2022-10-30T10:52:17;40.40;31.90
4245;DHT22;2136;48.502;9.194;2022-10-30T10:54:49;41.80;30.30
4245;DHT22;2136;48.502;9.194;2022-10-30T10:57:25;42.70;28.80
4245;DHT22;2136;48.502;9.194;2022-10-30T10:59:57;43.40;27.50
4245;DHT22;2136;48.502;9.194;2022-10-30T11:02:40;44.10;27.20
4245;DHT22;2136;48.502;9.194;2022-10-30T11:05:17;44.90;26.30
4245;DHT22;2136;48.502;9.194;2022-10-30T11:07:48;45.40;25.50
4245;DHT22;2136;48.502;9.194;2022-10-30T11:10:17;45.70;25.00
4245;DHT22;2136;48.502;9.194;2022-10-30T11:12:45;45.90;24.30
4245;DHT22;2136;48.502;9.194;2022-10-30T11:15:20;46.00;24.20
4245;DHT22;2136;48.502;9.194;2022-10-30T11:17:57;46.10;24.30
4245;DHT22;2136;48.502;9.194;2022-10-30T11:20:28;45.90;24.10
4245;DHT22;2136;48.502;9.194;2022-10-30T11:22:56;44.90;23.60
4245;DHT22;2136;48.502;9.194;2022-10-30T11:25:24;43.70;23.70
4245;DHT22;2136;48.502;9.194;2022-10-30T11:27:54;42.30;24.40
4245;DHT22;2136;48.502;9.194;2022-10-30T11:30:23;40.90;25.00
4245;DHT22;2136;48.502;9.194;2022-10-30T11:32:51;39.50;26.00
4245;DHT22;2136;48.502;9.194;2022-10-30T11:35:19;38.10;27.10
4245;DHT22;2136;48.502;9.194;2022-10-30T11:37:48;36.90;28.40
4245;DHT22;2136;48.502;9.194;2022-10-30T11:40:18;35.70;29.10
4245;DHT22;2136;48.502;9.194;2022-10-30T11:42:48;34.80;30.40
4245;DHT22;2136;48.502;9.194;2022-10-30T11:45:17;33.80;31.50
4245;DHT22;2136;48.502;9.194;2022-10-30T11:47:45;33.00;32.40
4245;DHT22;2136;48.502;9.194;2022-10-30T11:50:18;32.20;33.50
4245;DHT22;2136;48.502;9.194;2022-10-30T11:52:48;31.50;34.50
4245;DHT22;2136;48.502;9.194;2022-10-30T11:55:18;30.80;35.50
4245;DHT22;2136;48.502;9.194;2022-10-30T11:57:48;30.20;36.20
4245;DHT22;2136;48.502;9.194;2022-10-30T12:00:19;29.70;36.60
4245;DHT22;2136;48.502;9.194;2022-10-30T12:02:48;29.30;37.80
4245;DHT22;2136;48.502;9.194;2022-10-30T12:05:35;28.80;40.00
4245;DHT22;2136;48.502;9.194;2022-10-30T12:08:17;28.40;41.00
4245;DHT22;2136;48.502;9.194;2022-10-30T12:10:47;28.10;41.70
4245;DHT22;2136;48.502;9.194;2022-10-30T12:13:21;27.80;42.10
4245;DHT22;2136;48.502;9.194;2022-10-30T12:15:50;27.50;43.00
4245;DHT22;2136;48.502;9.194;2022-10-30T12:18:25;27.30;43.90
4245;DHT22;2136;48.502;9.194;2022-10-30T12:20:55;27.10;43.90
4245;DHT22;2136;48.502;9.194;2022-10-30T12:23:24;26.90;44.30
4245;DHT22;2136;48.502;9.194;2022-10-30T12:25:52;26.70;43.70
4245;DHT22;2136;48.502;9.194;2022-10-30T12:28:21;26.60;43.80
4245;DHT22;2136;48.502;9.194;2022-10-30T12:30:51;26.50;44.80
4245;DHT22;2136;48.502;9.194;2022-10-30T12:33:22;26.40;45.10
4245;DHT22;2136;48.502;9.194;2022-10-30T12:35:53;26.20;45.00
4245;DHT22;2136;48.502;9.194;2022-10-30T12:38:24;26.10;45.00
4245;DHT22;2136;48.502;9.194;2022-10-30T12:41:00;26.00;45.60
4245;DHT22;2136;48.502;9.194;2022-10-30T12:43:31;25.90;45.50
4245;DHT22;2136;48.502;9.194;2022-10-30T12:46:06;25.90;46.10
4245;DHT22;2136;48.502;9.194;2022-10-30T12:48:43;25.80;46.60
4245;DHT22;2136;48.502;9.194;2022-10-30T12:51:18;25.70;46.50
4245;DHT22;2136;48.502;9.194;2022-10-30T12:53:49;25.70;46.90
4245;DHT22;2136;48.502;9.194;2022-10-30T12:56:23;25.60;46.40
4245;DHT22;2136;48.502;9.194;2022-10-30T12:58:58;25.50;46.10
4245;DHT22;2136;48.502;9.194;2022-10-30T13:01:33;25.50;46.40
4245;DHT22;2136;48.502;9.194;2022-10-30T13:04:07;25.40;46.90
4245;DHT22;2136;48.502;9.194;2022-10-30T13:06:40;25.40;47.20
4245;DHT22;2136;48.502;9.194;2022-10-30T13:09:14;25.30;47.50
4245;DHT22;2136;48.502;9.194;2022-10-30T13:11:47;25.30;47.40
4245;DHT22;2136;48.502;9.194;2022-10-30T13:14:19;25.30;47.50
4245;DHT22;2136;48.502;9.194;2022-10-30T13:16:49;25.30;48.30
4245;DHT22;2136;48.502;9.194;2022-10-30T13:19:16;25.30;48.50
4245;DHT22;2136;48.502;9.194;2022-10-30T13:21:50;25.30;48.50
4245;DHT22;2136;48.502;9.194;2022-10-30T13:24:25;25.30;49.30
4245;DHT22;2136;48.502;9.194;2022-10-30T13:26:57;25.40;49.60
4245;DHT22;2136;48.502;9.194;2022-10-30T13:29:32;25.50;48.50
4245;DHT22;2136;48.502;9.194;2022-10-30T13:32:24;25.60;47.30
4245;DHT22;2136;48.502;9.194;2022-10-30T13:34:56;25.70;47.60
4245;DHT22;2136;48.502;9.194;2022-10-30T13:37:30;25.70;48.30
4245;DHT22;2136;48.502;9.194;2022-10-30T13:40:09;25.80;49.10
4245;DHT22;2136;48.502;9.194;2022-10-30T13:42:47;25.80;49.50
4245;DHT22;2136;48.502;9.194;2022-10-30T13:45:25;25.80;49.70
4245;DHT22;2136;48.502;9.194;2022-10-30T13:48:01;25.80;48.90
4245;DHT22;2136;48.502;9.194;2022-10-30T13:50:42;25.80;49.10
4245;DHT22;2136;48.502;9.194;2022-10-30T13:53:16;25.70;49.40
4245;DHT22;2136;48.502;9.194;2022-10-30T13:55:46;25.70;49.90
4245;DHT22;2136;48.502;9.194;2022-10-30T13:58:18;25.60;50.30
4245;DHT22;2136;48.502;9.194;2022-10-30T14:00:58;25.50;51.10
4245;DHT22;2136;48.502;9.194;2022-10-30T14:03:39;25.50;51.80
4245;DHT22;2136;48.502;9.194;2022-10-30T14:06:13;25.40;52.30
4245;DHT22;2136;48.502;9.194;2022-10-30T14:08:50;25.40;52.40
4245;DHT22;2136;48.502;9.194;2022-10-30T14:11:20;25.40;52.90
4245;DHT22;2136;48.502;9.194;2022-10-30T14:13:54;25.40;53.00
4245;DHT22;2136;48.502;9.194;2022-10-30T14:16:39;25.30;52.70
4245;DHT22;2136;48.502;9.194;2022-10-30T14:19:07;25.30;51.30
4245;DHT22;2136;48.502;9.194;2022-10-30T14:21:42;25.30;50.80
4245;DHT22;2136;48.502;9.194;2022-10-30T14:24:13;25.40;51.90
4245;DHT22;2136;48.502;9.194;2022-10-30T14:26:51;25.40;52.80
4245;DHT22;2136;48.502;9.194;2022-10-30T14:29:42;25.40;53.30
4245;DHT22;2136;48.502;9.194;2022-10-30T14:35:34;25.40;54.70
4245;DHT22;2136;48.502;9.194;2022-10-30T14:38:24;25.30;54.90
4245;DHT22;2136;48.502;9.194;2022-10-30T14:44:01;25.20;54.90
4245;DHT22;2136;48.502;9.194;2022-10-30T14:46:35;25.00;54.90
4245;DHT22;2136;48.502;9.194;2022-10-30T14:49:14;24.90;55.10
4245;DHT22;2136;48.502;9.194;2022-10-30T14:51:56;24.80;55.50
4245;DHT22;2136;48.502;9.194;2022-10-30T14:54:30;24.60;56.00
4245;DHT22;2136;48.502;9.194;2022-10-30T14:57:00;24.50;56.20
4245;DHT22;2136;48.502;9.194;2022-10-30T14:59:31;24.40;56.50
4245;DHT22;2136;48.502;9.194;2022-10-30T15:02:22;24.20;57.10
4245;DHT22;2136;48.502;9.194;2022-10-30T15:05:11;24.10;57.80
4245;DHT22;2136;48.502;9.194;2022-10-30T15:07:44;23.90;58.30
4245;DHT22;2136;48.502;9.194;2022-10-30T15:10:18;23.70;58.30
4245;DHT22;2136;48.502;9.194;2022-10-30T15:12:58;23.60;58.70
4245;DHT22;2136;48.502;9.194;2022-10-30T15:15:29;23.50;59.20
4245;DHT22;2136;48.502;9.194;2022-10-30T15:17:58;23.30;59.60
4245;DHT22;2136;48.502;9.194;2022-10-30T15:20:29;23.20;60.20
4245;DHT22;2136;48.502;9.194;2022-10-30T15:22:59;23.00;60.80
4245;DHT22;2136;48.502;9.194;2022-10-30T15:25:32;22.90;61.40
4245;DHT22;2136;48.502;9.194;2022-10-30T15:28:01;22.80;62.10
4245;DHT22;2136;48.502;9.194;2022-10-30T15:30:29;22.80;63.70
4245;DHT22;2136;48.502;9.194;2022-10-30T15:32:56;22.60;63.40
4245;DHT22;2136;48.502;9.194;2022-10-30T15:35:25;22.50;64.30
4245;DHT22;2136;48.502;9.194;2022-10-30T15:38:00;22.50;65.50
4245;DHT22;2136;48.502;9.194;2022-10-30T15:40:27;22.30;66.30
4245;DHT22;2136;48.502;9.194;2022-10-30T15:42:56;22.20;66.70
4245;DHT22;2136;48.502;9.194;2022-10-30T15:45:29;22.10;67.20
4245;DHT22;2136;48.502;9.194;2022-10-30T15:48:00;22.00;68.20
4245;DHT22;2136;48.502;9.194;2022-10-30T15:50:29;21.90;69.10
4245;DHT22;2136;48.502;9.194;2022-10-30T15:52:57;21.80;69.60
4245;DHT22;2136;48.502;9.194;2022-10-30T15:55:27;21.70;70.30
4245;DHT22;2136;48.502;9.194;2022-10-30T15:57:57;21.60;71.10
4245;DHT22;2136;48.502;9.194;2022-10-30T16:00:28;21.50;72.00
4245;DHT22;2136;48.502;9.194;2022-10-30T16:02:59;21.40;72.50
4245;DHT22;2136;48.502;9.194;2022-10-30T16:05:26;21.30;73.20
4245;DHT22;2136;48.502;9.194;2022-10-30T16:07:55;21.20;73.90
4245;DHT22;2136;48.502;9.194;2022-10-30T16:10:23;21.10;74.80
4245;DHT22;2136;48.502;9.194;2022-10-30T16:12:51;21.00;75.60
4245;DHT22;2136;48.502;9.194;2022-10-30T16:15:26;20.90;75.30
4245;DHT22;2136;48.502;9.194;2022-10-30T16:18:03;20.90;74.40
4245;DHT22;2136;48.502;9.194;2022-10-30T16:20:31;20.80;73.70
4245;DHT22;2136;48.502;9.194;2022-10-30T16:22:59;20.70;72.90
4245;DHT22;2136;48.502;9.194;2022-10-30T16:25:26;20.70;72.60
4245;DHT22;2136;48.502;9.194;2022-10-30T16:27:53;20.60;72.20
4245;DHT22;2136;48.502;9.194;2022-10-30T16:30:20;20.60;71.50
4245;DHT22;2136;48.502;9.194;2022-10-30T16:32:50;20.50;69.50
4245;DHT22;2136;48.502;9.194;2022-10-30T16:35:21;20.50;67.60